West Vancouver, Canada
Current Conditions -  °F | °C
As of 8:00 AM on Thursday 29 Jan 2015 (Local Time) from CYVR Reporting Station
Broken Clouds Broken Clouds  
Wind Chill: 31°   Ceiling: 7800
Heat Index: 36°   Visibility: 30mi
Dew Point: 36°   Wind: 6mph
Humidity: 100%   Direction: 30°NNE
Pressure: 30.39"   Gusts: NA
Location:  49.33°N, 123.16°W
Report Text: CYVR 291600Z 03005KT 30SM FEW060 BKN078 02/02 A3039 RMK SC1AC4 SLP292
Loading
Personal Weather Stations






























Interactive Weather Map New forecast layout! Learn more

10-Day Weather Forecast

Advertisements
Track Severe Weather on mobile